Time;durP1;ratioP1;P1;durP2;ratioP2;P2;SDS_P1;SDS_P2;PMS_P1;PMS_P2;Temp;Humidity;BMP_temperature;BMP_pressure;BME280_temperature;BME280_humidity;BME280_pressure;Samples;Min_cycle;Max_cycle;Signal;HPM_P1;HPM_P2
2022/11/04 00:01:18;;;;;;;;;;;;;;;21.63;31.42;98250.75;5018254;28;831;-79
2022/11/04 00:03:44;;;;;;;;;;;;;;;21.59;31.56;98250.03;5016447;28;1327;-79
2022/11/04 00:06:09;;;;;;;;;;;;;;;21.25;31.63;98242.66;5018142;28;802;-79
2022/11/04 00:08:35;;;;;;;;;;;;;;;21.25;31.62;98244.69;5018356;28;695;-79
2022/11/04 00:13:44;;;;;;;;;;;;;;;21.36;31.38;98250.94;5018099;28;770;-79
2022/11/04 00:18:54;;;;;;;;;;;;;;;21.29;31.24;98239.72;5017103;28;808;-79
2022/11/04 00:29:31;;;;;;;;;;;;;;;21.28;31.58;98236.09;5033295;28;1212;-78
2022/11/04 00:34:40;;;;;;;;;;;;;;;21.23;31.68;98230.97;5017308;28;1996;-79
2022/11/04 00:37:06;;;;;;;;;;;;;;;21.17;31.61;98235.53;5017745;28;700;-79
2022/11/04 00:39:31;;;;;;;;;;;;;;;21.27;31.39;98228.84;5017794;28;747;-78
2022/11/04 00:41:57;;;;;;;;;;;;;;;21.17;31.59;98215.72;5016912;28;818;-78
2022/11/04 00:44:22;;;;;;;;;;;;;;;21.30;31.23;98216.69;5017384;28;1178;-78
2022/11/04 00:46:47;;;;;;;;;;;;;;;21.09;31.64;98217.13;5017578;28;989;-78
2022/11/04 00:49:13;;;;;;;;;;;;;;;21.07;31.39;98205.44;5016612;28;731;-79
2022/11/04 00:51:38;;;;;;;;;;;;;;;21.22;31.30;98211.59;5033138;28;783;-78
2022/11/04 00:54:04;;;;;;;;;;;;;;;21.26;31.25;98204.63;5017624;28;822;-79
2022/11/04 00:56:30;;;;;;;;;;;;;;;21.51;31.73;98208.97;5017410;28;1918;-78
2022/11/04 00:58:57;;;;;;;;;;;;;;;21.53;31.60;98207.28;5017497;28;779;-79
2022/11/04 01:01:23;;;;;;;;;;;;;;;21.27;31.57;98203.38;5016106;28;926;-79
2022/11/04 01:03:49;;;;;;;;;;;;;;;21.32;31.68;98202.91;5017188;28;779;-78
2022/11/04 01:06:14;;;;;;;;;;;;;;;21.42;31.33;98194.59;5000363;28;1140;-79
2022/11/04 01:08:40;;;;;;;;;;;;;;;21.29;31.27;98198.06;5017524;28;803;-78
2022/11/04 01:11:06;;;;;;;;;;;;;;;21.12;31.55;98199.28;5016390;28;750;-79
2022/11/04 01:13:31;;;;;;;;;;;;;;;20.89;32.13;98196.53;5018426;28;1294;-78
2022/11/04 01:15:57;;;;;;;;;;;;;;;20.95;31.88;98197.63;5034589;28;1999;-79
2022/11/04 01:18:23;;;;;;;;;;;;;;;21.04;31.67;98197.84;5018378;28;1262;-78
2022/11/04 01:20:48;;;;;;;;;;;;;;;21.25;31.50;98202.25;5034767;28;798;-78
2022/11/04 01:23:14;;;;;;;;;;;;;;;21.52;31.61;98204.91;5035151;28;1082;-79
2022/11/04 01:25:40;;;;;;;;;;;;;;;21.62;31.20;98195.34;5034895;28;810;-78
2022/11/04 01:28:05;;;;;;;;;;;;;;;21.24;31.50;98201.44;5018154;28;808;-79
2022/11/04 01:30:31;;;;;;;;;;;;;;;21.44;31.22;98192.91;5018101;28;774;-78
2022/11/04 01:32:56;;;;;;;;;;;;;;;21.38;31.13;98196.72;5037441;28;919;-79
2022/11/04 01:35:22;;;;;;;;;;;;;;;21.27;31.56;98189.22;5005630;28;1914;-79
2022/11/04 01:37:47;;;;;;;;;;;;;;;21.06;31.84;98189.69;5022267;28;1093;-78
2022/11/04 01:40:12;;;;;;;;;;;;;;;21.12;31.55;98181.50;5038558;28;768;-78
2022/11/04 01:42:38;;;;;;;;;;;;;;;21.20;31.45;98185.78;5038879;28;794;-78
2022/11/04 01:45:03;;;;;;;;;;;;;;;21.67;31.28;98179.88;5025544;28;785;-78
2022/11/04 01:47:29;;;;;;;;;;;;;;;21.56;31.70;98182.97;5001285;28;1275;-78
2022/11/04 01:50:07;;;;;;;;;;;;;;;21.46;31.50;98181.19;5001155;28;858;-79
2022/11/04 01:52:43;;;;;;;;;;;;;;;21.23;31.60;98174.34;5000031;28;1174;-78
2022/11/04 01:55:11;;;;;;;;;;;;;;;21.21;31.48;98178.88;5000009;28;1971;-78
2022/11/04 01:57:38;;;;;;;;;;;;;;;21.31;31.39;98178.66;5016242;28;782;-78
2022/11/04 02:00:04;;;;;;;;;;;;;;;21.19;31.42;98173.66;5000242;28;778;-78
2022/11/04 02:02:39;;;;;;;;;;;;;;;21.18;31.46;98166.38;4999264;28;905;-78
2022/11/04 02:05:04;;;;;;;;;;;;;;;21.25;31.24;98169.06;5001042;28;762;-78
2022/11/04 02:07:30;;;;;;;;;;;;;;;21.14;31.84;98177.00;5001217;28;955;-79
2022/11/04 02:09:55;;;;;;;;;;;;;;;21.29;32.27;98181.09;4999782;28;793;-79
2022/11/04 02:15:05;;;;;;;;;;;;;;;21.36;31.68;98165.22;5000711;28;1906;-78
2022/11/04 02:17:32;;;;;;;;;;;;;;;21.39;31.52;98167.16;5000802;28;1177;-79
2022/11/04 02:20:08;;;;;;;;;;;;;;;21.21;31.47;98151.38;5000642;28;747;-78
2022/11/04 02:22:49;;;;;;;;;;;;;;;21.19;31.55;98159.50;4999131;28;912;-79
2022/11/04 02:25:17;;;;;;;;;;;;;;;21.23;31.63;98163.03;5000585;28;869;-78
2022/11/04 02:28:02;;;;;;;;;;;;;;;21.27;31.34;98166.59;5000316;28;778;-79
2022/11/04 02:30:28;;;;;;;;;;;;;;;21.32;31.43;98151.16;5000788;28;911;-78
2022/11/04 02:33:05;;;;;;;;;;;;;;;21.22;31.61;98155.78;4999374;28;826;-78
2022/11/04 02:35:30;;;;;;;;;;;;;;;21.03;31.73;98151.75;4999977;28;1972;-78
2022/11/04 02:37:58;;;;;;;;;;;;;;;21.33;31.49;98147.88;5000403;28;761;-79
2022/11/04 02:40:27;;;;;;;;;;;;;;;21.38;31.98;98148.59;4998964;28;823;-79
2022/11/04 02:43:03;;;;;;;;;;;;;;;21.66;31.49;98145.09;4999614;28;843;-78
2022/11/04 02:45:36;;;;;;;;;;;;;;;21.37;31.68;98144.19;4998607;28;866;-79
2022/11/04 02:48:10;;;;;;;;;;;;;;;21.16;31.79;98154.72;4999589;28;759;-78
2022/11/04 02:50:53;;;;;;;;;;;;;;;21.01;32.08;98147.78;4999040;28;830;-79
2022/11/04 02:53:28;;;;;;;;;;;;;;;21.17;31.63;98144.19;4998545;28;830;-78
2022/11/04 02:55:54;;;;;;;;;;;;;;;21.26;31.44;98148.03;4998801;28;1910;-78
2022/11/04 02:58:24;;;;;;;;;;;;;;;21.21;31.41;98144.91;5000228;28;774;-79
2022/11/04 03:00:50;;;;;;;;;;;;;;;21.09;31.76;98140.75;4999048;28;731;-77
2022/11/04 03:03:21;;;;;;;;;;;;;;;21.00;32.00;98147.00;4998666;28;866;-78
2022/11/04 03:05:47;;;;;;;;;;;;;;;21.17;31.40;98133.66;4999034;28;759;-79
2022/11/04 03:08:15;;;;;;;;;;;;;;;21.32;31.33;98145.50;4998666;28;782;-78
2022/11/04 03:10:41;;;;;;;;;;;;;;;21.35;31.49;98146.63;4998528;28;774;-78
2022/11/04 03:13:09;;;;;;;;;;;;;;;21.21;32.36;98147.75;4998579;28;743;-78
2022/11/04 03:15:34;;;;;;;;;;;;;;;21.44;32.00;98149.66;4998413;28;1968;-79
2022/11/04 03:18:22;;;;;;;;;;;;;;;21.23;32.06;98140.41;4998527;28;802;-78
2022/11/04 03:20:47;;;;;;;;;;;;;;;21.42;31.50;98149.31;4999323;28;792;-79
2022/11/04 03:23:13;;;;;;;;;;;;;;;21.26;31.48;98153.69;4999647;28;806;-78
2022/11/04 03:25:39;;;;;;;;;;;;;;;21.17;31.66;98147.81;4999546;28;746;-78
2022/11/04 03:28:05;;;;;;;;;;;;;;;21.22;31.79;98147.31;4998279;28;864;-78
2022/11/04 03:30:38;;;;;;;;;;;;;;;21.25;31.63;98146.44;5014728;28;1141;-78
2022/11/04 03:33:10;;;;;;;;;;;;;;;21.28;31.55;98151.19;4997943;28;795;-79
2022/11/04 03:35:36;;;;;;;;;;;;;;;20.99;31.92;98153.09;4998012;28;1919;-78
2022/11/04 03:38:01;;;;;;;;;;;;;;;21.06;32.05;98150.09;4997992;28;856;-78
2022/11/04 03:40:27;;;;;;;;;;;;;;;21.22;31.39;98147.31;4998086;28;1115;-78
2022/11/04 03:42:57;;;;;;;;;;;;;;;21.54;31.68;98142.94;4997981;28;881;-78
2022/11/04 03:45:23;;;;;;;;;;;;;;;21.52;31.63;98143.41;4997121;28;1438;-78
2022/11/04 03:47:48;;;;;;;;;;;;;;;21.51;31.47;98138.19;4964557;28;904;-78
2022/11/04 03:50:18;;;;;;;;;;;;;;;21.38;31.61;98137.28;4977109;28;1087;-79
2022/11/04 03:52:43;;;;;;;;;;;;;;;21.25;31.64;98126.63;4961152;28;807;-78
2022/11/04 03:55:09;;;;;;;;;;;;;;;21.23;31.80;98131.91;4960573;28;1972;-78
2022/11/04 03:57:49;;;;;;;;;;;;;;;21.05;31.73;98125.88;4961476;28;1017;-78
2022/11/04 04:00:15;;;;;;;;;;;;;;;21.06;31.84;98122.59;4976950;28;872;-78
2022/11/04 04:02:49;;;;;;;;;;;;;;;21.37;31.33;98124.38;4961124;28;959;-78
2022/11/04 04:05:19;;;;;;;;;;;;;;;21.65;31.58;98123.66;4976890;28;919;-78
2022/11/04 04:07:48;;;;;;;;;;;;;;;21.92;31.06;98119.78;4957654;28;1045;-78
2022/11/04 04:12:59;;;;;;;;;;;;;;;21.01;32.22;98119.50;4957780;28;901;-79
2022/11/04 04:15:29;;;;;;;;;;;;;;;21.25;31.73;98123.78;4941329;29;1993;-78
2022/11/04 04:17:55;;;;;;;;;;;;;;;21.12;31.79;98119.25;4957110;28;727;-78
2022/11/04 04:20:21;;;;;;;;;;;;;;;21.15;31.62;98119.19;4956462;28;787;-79
2022/11/04 04:22:57;;;;;;;;;;;;;;;21.14;31.53;98122.44;4937477;29;1292;-78
2022/11/04 04:28:08;;;;;;;;;;;;;;;21.26;31.55;98119.72;4905521;29;1158;-79
2022/11/04 04:30:33;;;;;;;;;;;;;;;21.14;31.67;98120.41;4887132;29;1232;-78
2022/11/04 04:33:00;;;;;;;;;;;;;;;21.34;32.31;98120.38;4918682;29;918;-78
2022/11/04 04:35:41;;;;;;;;;;;;;;;21.44;31.86;98119.31;4887819;29;1910;-78
2022/11/04 04:46:24;;;;;;;;;;;;;;;21.32;31.67;98118.00;4943800;29;958;-78
2022/11/04 04:48:50;;;;;;;;;;;;;;;21.31;31.37;98116.41;4941229;29;935;-78
2022/11/04 04:51:15;;;;;;;;;;;;;;;21.26;31.69;98119.72;4941349;29;943;-79
2022/11/04 04:53:41;;;;;;;;;;;;;;;21.06;31.75;98111.28;4949823;28;981;-78
2022/11/04 04:56:06;;;;;;;;;;;;;;;20.96;32.15;98117.97;4972488;28;1981;-78
2022/11/04 04:58:32;;;;;;;;;;;;;;;21.14;31.81;98117.59;4996701;28;822;-79
2022/11/04 05:00:57;;;;;;;;;;;;;;;21.50;32.01;98122.41;4997776;28;786;-78
2022/11/04 05:03:23;;;;;;;;;;;;;;;21.59;31.89;98120.56;4997832;28;813;-78
2022/11/04 05:05:48;;;;;;;;;;;;;;;21.32;31.73;98118.00;4996454;28;743;-78
2022/11/04 05:08:14;;;;;;;;;;;;;;;21.14;31.96;98123.25;4997568;28;1035;-79
2022/11/04 05:10:39;;;;;;;;;;;;;;;21.28;31.63;98125.72;4976412;28;1288;-78
2022/11/04 05:15:49;;;;;;;;;;;;;;;21.28;31.44;98128.56;4975730;28;1985;-78
2022/11/04 05:18:14;;;;;;;;;;;;;;;21.27;31.62;98114.84;4976378;28;770;-78
2022/11/04 05:20:40;;;;;;;;;;;;;;;21.30;31.51;98122.50;4975943;28;813;-78
2022/11/04 05:23:06;;;;;;;;;;;;;;;20.99;31.85;98116.31;4975931;28;755;-79
2022/11/04 05:25:31;;;;;;;;;;;;;;;21.36;32.28;98122.78;4976153;28;919;-79
2022/11/04 05:28:00;;;;;;;;;;;;;;;21.35;31.93;98119.16;4959450;28;976;-78
2022/11/04 05:30:26;;;;;;;;;;;;;;;21.71;31.67;98115.44;4975735;28;916;-79
2022/11/04 05:32:51;;;;;;;;;;;;;;;21.55;31.32;98122.72;4975831;28;814;-78
2022/11/04 05:35:16;;;;;;;;;;;;;;;21.35;31.58;98116.31;4976011;28;2067;-78
2022/11/04 05:37:42;;;;;;;;;;;;;;;21.20;32.02;98115.81;4975944;28;829;-78
2022/11/04 05:40:08;;;;;;;;;;;;;;;21.16;31.79;98114.31;4975705;28;751;-78
2022/11/04 05:42:35;;;;;;;;;;;;;;;21.18;32.07;98118.28;5007757;28;1311;-78
2022/11/04 05:45:01;;;;;;;;;;;;;;;21.36;31.47;98128.44;4996339;28;963;-78
2022/11/04 05:47:26;;;;;;;;;;;;;;;21.21;31.91;98122.28;4997190;28;814;-78
2022/11/04 05:49:52;;;;;;;;;;;;;;;21.16;32.08;98136.94;4997254;28;759;-78
2022/11/04 05:52:17;;;;;;;;;;;;;;;21.31;31.60;98133.38;4996247;28;1119;-79
2022/11/04 05:54:42;;;;;;;;;;;;;;;21.19;31.68;98136.88;4996430;28;1980;-79
2022/11/04 05:57:08;;;;;;;;;;;;;;;21.35;31.56;98143.81;4996125;28;798;-79
2022/11/04 05:59:33;;;;;;;;;;;;;;;21.00;32.15;98147.00;5011716;28;898;-78
2022/11/04 06:01:59;;;;;;;;;;;;;;;21.49;31.14;98147.09;4996338;28;1132;-78
2022/11/04 06:04:24;;;;;;;;;;;;;;;21.33;31.97;98142.22;4997243;28;869;-77
2022/11/04 06:06:50;;;;;;;;;;;;;;;21.55;31.82;98138.88;4979054;28;949;-79
2022/11/04 06:09:15;;;;;;;;;;;;;;;21.63;31.82;98137.47;4997272;28;807;-78
2022/11/04 06:11:41;;;;;;;;;;;;;;;21.53;31.57;98128.00;4997022;28;773;-78
2022/11/04 06:14:06;;;;;;;;;;;;;;;21.47;31.80;98129.78;4995888;28;1381;-79
2022/11/04 06:16:31;;;;;;;;;;;;;;;21.21;32.02;98123.06;4997134;28;1979;-79
2022/11/04 06:18:57;;;;;;;;;;;;;;;21.26;31.80;98122.56;4999564;28;706;-78
2022/11/04 06:21:26;;;;;;;;;;;;;;;21.25;31.79;98126.63;5000938;28;789;-78
2022/11/04 06:23:52;;;;;;;;;;;;;;;21.21;31.87;98125.13;4999506;28;805;-79
2022/11/04 06:26:27;;;;;;;;;;;;;;;21.28;31.64;98130.59;4982842;28;914;-78
2022/11/04 06:28:52;;;;;;;;;;;;;;;21.44;32.50;98141.16;5000573;28;961;-78
2022/11/04 06:31:18;;;;;;;;;;;;;;;21.41;32.31;98147.72;4998994;28;846;-79
2022/11/04 06:33:43;;;;;;;;;;;;;;;21.05;32.39;98154.16;5000883;28;750;-78
2022/11/04 06:36:10;;;;;;;;;;;;;;;21.15;32.52;98153.13;4999238;28;2336;-78
2022/11/04 06:38:38;;;;;;;;;;;;;;;21.28;32.09;98145.53;4999506;28;782;-79
2022/11/04 06:41:05;;;;;;;;;;;;;;;21.41;31.56;98148.53;4999747;28;1116;-78
2022/11/04 06:43:30;;;;;;;;;;;;;;;21.40;31.39;98144.09;5000059;28;873;-79
2022/11/04 06:45:56;;;;;;;;;;;;;;;21.17;31.86;98145.00;5014560;28;845;-78
2022/11/04 06:48:21;;;;;;;;;;;;;;;21.21;31.88;98151.38;4999025;28;1187;-78
2022/11/04 06:50:47;;;;;;;;;;;;;;;21.16;31.94;98142.59;5000130;28;965;-78
2022/11/04 06:53:12;;;;;;;;;;;;;;;21.23;31.67;98143.22;5000095;28;703;-78
2022/11/04 06:55:38;;;;;;;;;;;;;;;21.24;31.56;98144.84;4982045;28;1906;-78
2022/11/04 06:58:03;;;;;;;;;;;;;;;21.10;32.31;98145.16;4998604;28;927;-78
2022/11/04 07:00:28;;;;;;;;;;;;;;;21.45;32.49;98148.41;4999083;28;911;-78
2022/11/04 07:02:54;;;;;;;;;;;;;;;21.39;32.56;98150.19;5000088;28;715;-79
2022/11/04 07:05:19;;;;;;;;;;;;;;;21.10;32.65;98150.81;4998694;28;936;-78
2022/11/04 07:07:45;;;;;;;;;;;;;;;21.23;32.24;98143.22;5000065;28;937;-78
2022/11/04 07:10:10;;;;;;;;;;;;;;;21.33;32.04;98136.56;4998910;28;696;-78
2022/11/04 07:12:36;;;;;;;;;;;;;;;21.29;31.95;98135.00;4999347;28;782;-78
2022/11/04 07:15:01;;;;;;;;;;;;;;;21.01;32.29;98136.47;4999543;28;1910;-78
2022/11/04 07:17:27;;;;;;;;;;;;;;;21.18;31.96;98149.41;4998709;28;1234;-78
2022/11/04 07:19:52;;;;;;;;;;;;;;;21.26;31.91;98133.06;5015075;28;803;-79
2022/11/04 07:22:18;;;;;;;;;;;;;;;21.17;32.02;98133.66;4998733;28;783;-79
2022/11/04 07:24:43;;;;;;;;;;;;;;;21.14;31.95;98134.56;4998519;28;1095;-79
2022/11/04 07:27:08;;;;;;;;;;;;;;;21.28;31.85;98133.44;4999668;28;923;-79
2022/11/04 07:29:34;;;;;;;;;;;;;;;21.04;31.89;98129.94;4997733;28;858;-78
2022/11/04 07:31:59;;;;;;;;;;;;;;;21.07;31.92;98143.19;4981136;28;911;-78
2022/11/04 07:34:25;;;;;;;;;;;;;;;21.11;31.80;98143.91;4999147;28;711;-79
2022/11/04 07:36:50;;;;;;;;;;;;;;;21.10;31.99;98130.22;5014032;28;1902;-78
2022/11/04 07:39:16;;;;;;;;;;;;;;;21.30;32.71;98128.97;4999570;28;794;-79
2022/11/04 07:41:41;;;;;;;;;;;;;;;21.33;32.77;98125.25;4998658;28;727;-79
2022/11/04 07:44:09;;;;;;;;;;;;;;;21.31;32.35;98133.38;4998890;28;708;-79
2022/11/04 07:46:36;;;;;;;;;;;;;;;21.36;31.93;98128.44;4996687;28;924;-78
2022/11/04 07:49:01;;;;;;;;;;;;;;;21.19;32.00;98125.56;4980514;28;1211;-78
2022/11/04 07:51:27;;;;;;;;;;;;;;;21.33;31.33;98130.91;4980495;28;1254;-78
2022/11/04 07:53:54;;;;;;;;;;;;;;;21.10;31.78;98127.41;4980354;28;1316;-78
2022/11/04 07:56:19;;;;;;;;;;;;;;;21.03;31.86;98120.63;4996223;28;1891;-78
2022/11/04 07:58:45;;;;;;;;;;;;;;;21.39;32.00;98121.88;4996660;28;835;-78
2022/11/04 08:01:15;;;;;;;;;;;;;;;21.47;31.75;98112.00;4996426;28;856;-78
2022/11/04 08:03:40;;;;;;;;;;;;;;;21.38;31.40;98108.97;4996456;28;979;-78
2022/11/04 08:06:06;;;;;;;;;;;;;;;21.06;32.01;98105.63;4980355;28;1233;-78
2022/11/04 08:08:31;;;;;;;;;;;;;;;21.22;31.46;98107.69;4980705;28;1246;-78
2022/11/04 08:11:17;;;;;;;;;;;;;;;21.36;31.08;98108.63;4996250;28;723;-79
2022/11/04 08:13:43;;;;;;;;;;;;;;;21.37;31.01;98107.38;4995894;28;937;-78
2022/11/04 08:16:12;;;;;;;;;;;;;;;21.27;31.25;98107.16;4979924;28;1977;-79
2022/11/04 08:18:38;;;;;;;;;;;;;;;21.26;31.98;98104.78;4998033;28;792;-79
2022/11/04 08:21:03;;;;;;;;;;;;;;;21.49;31.39;98103.84;4997410;28;1225;-78
2022/11/04 08:23:29;;;;;;;;;;;;;;;21.27;31.35;98103.53;4997276;28;979;-78
2022/11/04 08:25:54;;;;;;;;;;;;;;;21.21;31.55;98094.78;4998512;28;894;-78
2022/11/04 08:28:20;;;;;;;;;;;;;;;21.16;31.23;98092.47;4998141;28;915;-79
2022/11/04 08:30:54;;;;;;;;;;;;;;;21.23;31.23;98086.63;4997250;28;1116;-78
2022/11/04 08:33:20;;;;;;;;;;;;;;;21.12;31.23;98086.09;4997159;28;1224;-79
2022/11/04 08:35:45;;;;;;;;;;;;;;;21.25;31.38;98089.84;4996652;28;1985;-78
2022/11/04 08:38:11;;;;;;;;;;;;;;;21.36;31.47;98083.94;4997688;28;743;-78
2022/11/04 08:40:36;;;;;;;;;;;;;;;21.55;30.64;98080.25;4997379;28;834;-79
2022/11/04 08:43:02;;;;;;;;;;;;;;;21.08;31.26;98068.41;4997057;28;747;-79
2022/11/04 08:45:27;;;;;;;;;;;;;;;21.29;31.09;98073.53;4997614;28;1059;-78
2022/11/04 08:47:53;;;;;;;;;;;;;;;21.35;30.40;98070.22;4996805;28;1230;-79
2022/11/04 08:50:18;;;;;;;;;;;;;;;21.39;30.24;98068.09;4997577;28;806;-78
2022/11/04 08:52:44;;;;;;;;;;;;;;;21.22;30.86;98061.63;4997691;28;754;-79
2022/11/04 08:55:09;;;;;;;;;;;;;;;21.10;31.13;98065.94;4996508;28;1910;-79
2022/11/04 08:57:34;;;;;;;;;;;;;;;21.05;31.18;98063.63;5015008;28;890;-78
2022/11/04 09:00:00;;;;;;;;;;;;;;;21.55;30.78;98056.78;5014856;28;817;-78
2022/11/04 09:02:26;;;;;;;;;;;;;;;21.74;30.27;98058.69;4998483;28;958;-78
2022/11/04 09:04:51;;;;;;;;;;;;;;;21.36;31.08;98054.84;4998711;28;878;-79
2022/11/04 09:07:17;;;;;;;;;;;;;;;21.20;31.19;98059.22;5015315;28;802;-78
2022/11/04 09:09:42;;;;;;;;;;;;;;;21.08;30.88;98052.22;5014884;28;739;-78
2022/11/04 09:12:08;;;;;;;;;;;;;;;21.20;30.78;98059.22;5015239;28;956;-79
2022/11/04 09:14:34;;;;;;;;;;;;;;;21.18;30.67;98056.03;4998993;28;794;-79
2022/11/04 09:16:59;;;;;;;;;;;;;;;20.98;30.96;98041.94;4998604;28;1970;-78
2022/11/04 09:19:25;;;;;;;;;;;;;;;21.44;30.61;98033.59;5014959;28;750;-78
2022/11/04 09:21:50;;;;;;;;;;;;;;;21.72;30.10;98037.75;5014918;28;824;-78
2022/11/04 09:24:16;;;;;;;;;;;;;;;21.35;30.57;98033.41;4982376;28;1206;-78
2022/11/04 09:26:43;;;;;;;;;;;;;;;21.24;30.82;98026.00;5015105;28;834;-78
2022/11/04 09:29:09;;;;;;;;;;;;;;;21.12;31.06;98029.50;5012001;28;960;-78
2022/11/04 09:31:34;;;;;;;;;;;;;;;21.25;30.38;98021.91;4997570;28;825;-79
2022/11/04 09:33:59;;;;;;;;;;;;;;;21.30;30.52;98012.94;5014551;28;962;-79
2022/11/04 09:36:25;;;;;;;;;;;;;;;21.23;30.37;98024.38;5014931;28;1903;-78
2022/11/04 09:38:51;;;;;;;;;;;;;;;21.22;30.35;98016.34;5014789;28;794;-78
2022/11/04 09:41:19;;;;;;;;;;;;;;;21.45;30.21;98006.88;5014885;28;834;-78
2022/11/04 09:43:47;;;;;;;;;;;;;;;21.57;29.93;98009.00;5015073;28;927;-78
2022/11/04 09:46:12;;;;;;;;;;;;;;;21.11;30.67;98004.50;5015076;28;794;-78
2022/11/04 09:48:47;;;;;;;;;;;;;;;21.24;30.82;98003.34;5015060;28;800;-79
2022/11/04 09:51:13;;;;;;;;;;;;;;;21.13;30.68;97996.34;4998721;28;848;-78
2022/11/04 09:53:43;;;;;;;;;;;;;;;21.13;30.78;97985.81;5000334;28;960;-79
2022/11/04 09:56:11;;;;;;;;;;;;;;;21.02;30.73;97983.25;4998588;28;1898;-78
2022/11/04 09:58:36;;;;;;;;;;;;;;;21.09;30.75;97990.78;4982628;28;1375;-79
2022/11/04 10:01:19;;;;;;;;;;;;;;;21.53;30.09;97979.97;4982962;28;854;-78
2022/11/04 10:03:47;;;;;;;;;;;;;;;21.53;30.32;97982.81;4982516;28;719;-79
2022/11/04 10:06:48;;;;;;;;;;;;;;;21.15;30.67;97977.72;4998656;28;912;-79
2022/11/04 10:09:25;;;;;;;;;;;;;;;21.04;30.73;97965.88;4902649;29;1132;-78
2022/11/04 10:11:59;;;;;;;;;;;;;;;21.26;30.55;97961.25;4902386;29;892;-79
2022/11/04 10:15:00;;;;;;;;;;;;;;;21.07;30.79;97959.31;4902393;29;986;-79
2022/11/04 10:17:25;;;;;;;;;;;;;;;21.00;30.71;97956.66;4849405;29;1169;-78
2022/11/04 10:20:11;;;;;;;;;;;;;;;21.06;30.59;97960.56;4865279;29;997;-78
2022/11/04 10:22:42;;;;;;;;;;;;;;;21.34;31.14;97956.22;4865158;29;950;-78
2022/11/04 10:25:09;;;;;;;;;;;;;;;21.42;30.62;97945.50;4849711;29;974;-78
2022/11/04 10:27:36;;;;;;;;;;;;;;;21.22;30.88;97949.22;4849845;29;1238;-78
2022/11/04 10:30:12;;;;;;;;;;;;;;;21.15;31.01;97937.31;4849932;29;1234;-78
2022/11/04 10:32:42;;;;;;;;;;;;;;;21.10;30.88;97935.81;4865019;29;1002;-78
2022/11/04 10:35:17;;;;;;;;;;;;;;;21.18;30.67;97937.19;4834437;29;1919;-78
2022/11/04 10:37:42;;;;;;;;;;;;;;;21.16;30.81;97922.69;4864788;29;984;-78
2022/11/04 10:40:13;;;;;;;;;;;;;;;21.23;30.61;97928.16;4873574;29;923;-78
2022/11/04 10:42:39;;;;;;;;;;;;;;;21.06;30.83;97929.44;4898926;29;874;-78
2022/11/04 10:45:05;;;;;;;;;;;;;;;21.28;31.11;97930.47;4924184;29;946;-78
2022/11/04 10:47:39;;;;;;;;;;;;;;;21.39;30.50;97912.44;4937175;29;955;-79
2022/11/04 10:50:12;;;;;;;;;;;;;;;21.43;30.27;97907.47;4924435;29;1406;-78
2022/11/04 10:52:37;;;;;;;;;;;;;;;21.27;30.57;97894.13;4980561;28;946;-78
2022/11/04 10:55:10;;;;;;;;;;;;;;;21.08;30.83;97898.66;4979698;28;1981;-79
2022/11/04 10:57:36;;;;;;;;;;;;;;;21.09;30.74;97888.94;4963410;28;791;-79
2022/11/04 11:00:02;;;;;;;;;;;;;;;21.02;30.84;97883.47;4980010;28;740;-78
2022/11/04 11:02:33;;;;;;;;;;;;;;;21.19;30.83;97870.91;4979467;28;1293;-78
2022/11/04 11:05:20;;;;;;;;;;;;;;;21.24;30.51;97864.69;4978051;28;768;-79
2022/11/04 11:07:50;;;;;;;;;;;;;;;21.13;30.58;97878.31;4980398;28;968;-79
2022/11/04 11:10:16;;;;;;;;;;;;;;;21.52;30.29;97865.16;4979239;28;959;-78
2022/11/04 11:12:49;;;;;;;;;;;;;;;21.58;30.48;97869.03;4962999;28;836;-78
2022/11/04 11:15:25;;;;;;;;;;;;;;;21.27;30.71;97866.63;4980284;28;1918;-78
2022/11/04 11:18:17;;;;;;;;;;;;;;;21.06;31.00;97872.84;4979410;28;1213;-79
2022/11/04 11:20:46;;;;;;;;;;;;;;;21.11;31.24;97863.81;4958805;29;1062;-79
2022/11/04 11:23:47;;;;;;;;;;;;;;;21.23;30.83;97862.28;4942453;29;916;-78
2022/11/04 11:26:17;;;;;;;;;;;;;;;21.14;30.59;97851.63;4901355;29;924;-78
2022/11/04 11:28:46;;;;;;;;;;;;;;;21.20;30.62;97847.00;4885842;29;1092;-78
2022/11/04 11:31:15;;;;;;;;;;;;;;;21.53;30.47;97855.41;4885773;29;1113;-79
2022/11/04 11:33:46;;;;;;;;;;;;;;;21.44;30.39;97852.44;4886416;29;1058;-78
2022/11/04 11:36:15;;;;;;;;;;;;;;;21.17;30.90;97856.38;4885633;29;1918;-79
2022/11/04 11:38:51;;;;;;;;;;;;;;;21.29;30.40;97852.00;4863650;29;915;-79
2022/11/04 11:41:22;;;;;;;;;;;;;;;21.18;30.59;97846.66;4848641;29;877;-78
2022/11/04 11:43:50;;;;;;;;;;;;;;;20.94;30.86;97857.41;4848997;29;848;-78
2022/11/04 11:46:25;;;;;;;;;;;;;;;20.86;31.03;97846.72;4848505;29;1165;-79
2022/11/04 11:48:51;;;;;;;;;;;;;;;21.08;31.09;97837.22;4848648;29;916;-79
2022/11/04 11:51:43;;;;;;;;;;;;;;;21.53;30.29;97835.59;4848484;29;1328;-78
2022/11/04 11:54:27;;;;;;;;;;;;;;;21.04;30.90;97835.75;4809165;29;1118;-78
2022/11/04 11:56:56;;;;;;;;;;;;;;;20.95;31.41;97839.19;4799768;29;1919;-78
2022/11/04 11:59:25;;;;;;;;;;;;;;;21.19;30.84;97836.94;4784650;29;925;-78
2022/11/04 12:02:11;;;;;;;;;;;;;;;21.07;31.01;97832.00;4845354;29;878;-79
2022/11/04 12:04:36;;;;;;;;;;;;;;;20.92;31.05;97828.75;4863204;29;1467;-78
2022/11/04 12:07:02;;;;;;;;;;;;;;;20.93;30.78;97829.53;4863517;29;1222;-79
2022/11/04 12:09:40;;;;;;;;;;;;;;;21.13;30.79;97821.72;4871097;29;883;-79
2022/11/04 12:12:20;;;;;;;;;;;;;;;21.61;29.82;97817.19;4882268;29;978;-78
2022/11/04 12:14:48;;;;;;;;;;;;;;;21.35;30.52;97821.16;4881769;29;865;-78
2022/11/04 12:17:18;;;;;;;;;;;;;;;21.08;30.75;97819.44;4881684;29;1911;-78
2022/11/04 12:20:02;;;;;;;;;;;;;;;21.22;30.54;97818.25;4881937;29;753;-78
2022/11/04 12:22:31;;;;;;;;;;;;;;;21.14;30.86;97809.19;4881990;29;950;-79
2022/11/04 12:25:08;;;;;;;;;;;;;;;21.05;30.73;97814.69;4882001;29;934;-78
2022/11/04 12:27:52;;;;;;;;;;;;;;;21.42;30.29;97803.97;4881954;29;803;-78
2022/11/04 12:30:21;;;;;;;;;;;;;;;21.54;30.29;97795.50;4894893;29;1069;-78
2022/11/04 12:32:56;;;;;;;;;;;;;;;21.36;30.21;97805.78;4937898;29;827;-78
2022/11/04 12:35:24;;;;;;;;;;;;;;;21.24;30.38;97805.28;4937840;29;1984;-78
2022/11/04 12:37:55;;;;;;;;;;;;;;;21.35;30.19;97798.50;4937569;29;926;-78
2022/11/04 12:40:26;;;;;;;;;;;;;;;21.27;30.04;97804.34;4937899;29;1274;-78
2022/11/04 12:43:11;;;;;;;;;;;;;;;21.26;30.46;97802.78;4977471;28;889;-79
2022/11/04 12:45:43;;;;;;;;;;;;;;;21.55;30.03;97801.97;4993578;28;1152;-78
2022/11/04 12:48:09;;;;;;;;;;;;;;;21.35;30.39;97802.16;4978657;28;779;-78
2022/11/04 12:50:45;;;;;;;;;;;;;;;21.22;30.45;97802.06;4977343;28;771;-78
2022/11/04 12:53:29;;;;;;;;;;;;;;;21.18;30.47;97801.38;4977490;28;795;-78
2022/11/04 12:55:59;;;;;;;;;;;;;;;21.20;30.84;97790.41;4978475;28;1903;-78
2022/11/04 12:58:25;;;;;;;;;;;;;;;21.05;30.95;97797.72;4977343;28;946;-79
2022/11/04 13:00:53;;;;;;;;;;;;;;;21.09;30.56;97798.41;4976908;28;799;-78
2022/11/04 13:03:29;;;;;;;;;;;;;;;21.30;30.39;97792.19;4978251;28;739;-79
2022/11/04 13:06:11;;;;;;;;;;;;;;;21.64;30.04;97787.94;4977098;28;739;-79
2022/11/04 13:08:45;;;;;;;;;;;;;;;21.49;30.00;97786.78;4978281;28;756;-79
2022/11/04 13:11:22;;;;;;;;;;;;;;;21.16;30.53;97792.56;4976730;28;776;-79
2022/11/04 13:14:02;;;;;;;;;;;;;;;21.16;30.59;97792.56;4978340;28;705;-79
2022/11/04 13:16:29;;;;;;;;;;;;;;;21.18;30.40;97792.88;4978582;28;1992;-79
2022/11/04 13:18:54;;;;;;;;;;;;;;;21.09;30.53;97798.41;4960700;28;756;-79
2022/11/04 13:21:26;;;;;;;;;;;;;;;21.24;30.65;97788.28;4975549;28;1116;-79
2022/11/04 13:24:03;;;;;;;;;;;;;;;21.45;30.06;97780.44;4959908;28;852;-79
2022/11/04 13:26:28;;;;;;;;;;;;;;;21.40;30.34;97786.63;4960210;28;1133;-79
2022/11/04 13:28:58;;;;;;;;;;;;;;;21.23;30.33;97778.19;4962514;28;744;-78
2022/11/04 13:31:24;;;;;;;;;;;;;;;21.11;30.66;97778.16;4921972;29;872;-79
2022/11/04 13:33:51;;;;;;;;;;;;;;;21.12;30.48;97782.56;4922386;29;788;-79
2022/11/04 13:36:23;;;;;;;;;;;;;;;20.99;30.73;97768.41;4938242;29;1980;-79
2022/11/04 13:38:49;;;;;;;;;;;;;;;21.23;30.59;97781.03;4938583;29;787;-79
2022/11/04 13:41:43;;;;;;;;;;;;;;;21.38;30.23;97783.47;4906568;29;1188;-79
2022/11/04 13:44:17;;;;;;;;;;;;;;;21.30;30.45;97769.53;4921914;29;877;-79
2022/11/04 13:46:46;;;;;;;;;;;;;;;21.32;30.24;97772.72;4906506;29;1093;-79
2022/11/04 13:49:12;;;;;;;;;;;;;;;21.08;30.42;97779.84;4884207;29;1167;-79